createdAt,value
2022-09-21T00:01:09.273Z,9.82
2022-09-21T00:03:12.380Z,9.82
2022-09-21T00:05:15.084Z,9.78
2022-09-21T00:07:17.903Z,9.69
2022-09-21T00:09:20.493Z,9.63
2022-09-21T00:11:25.053Z,9.60
2022-09-21T00:13:28.385Z,9.55
2022-09-21T00:15:32.882Z,9.49
2022-09-21T00:17:35.535Z,9.47
2022-09-21T00:19:38.514Z,9.40
2022-09-21T00:21:41.043Z,9.36
2022-09-21T00:23:44.857Z,9.30
2022-09-21T00:25:47.367Z,9.20
2022-09-21T00:27:51.401Z,9.19
2022-09-21T00:29:54.135Z,9.02
2022-09-21T00:31:58.405Z,9.08
2022-09-21T00:34:03.408Z,9.18
2022-09-21T00:36:07.201Z,9.16
2022-09-21T00:38:09.716Z,9.08
2022-09-21T00:40:13.124Z,9.07
2022-09-21T00:42:19.303Z,9.16
2022-09-21T00:44:33.108Z,9.18
2022-09-21T00:46:38.417Z,9.17
2022-09-21T00:48:43.083Z,9.17
2022-09-21T00:50:50.710Z,9.20
2022-09-21T00:52:57.984Z,9.19
2022-09-21T00:55:06.993Z,9.20
2022-09-21T00:57:09.801Z,9.18
2022-09-21T00:59:14.144Z,9.15
2022-09-21T01:01:18.080Z,9.09
2022-09-21T01:03:20.730Z,8.98
2022-09-21T01:05:24.979Z,8.98
2022-09-21T01:07:30.660Z,8.91
2022-09-21T01:09:33.680Z,8.88
2022-09-21T01:11:45.634Z,8.86
2022-09-21T01:14:00.980Z,8.84
2022-09-21T01:16:13.917Z,8.81
2022-09-21T01:18:24.703Z,8.78
2022-09-21T01:20:44.335Z,8.78
2022-09-21T01:23:03.987Z,8.74
2022-09-21T01:25:15.539Z,8.75
2022-09-21T01:27:50.739Z,8.72
2022-09-21T01:29:59.692Z,8.65
2022-09-21T01:32:09.789Z,8.63
2022-09-21T01:34:18.548Z,8.59
2022-09-21T01:36:26.698Z,8.59
2022-09-21T01:38:33.016Z,8.58
2022-09-21T01:40:39.828Z,8.52
2022-09-21T01:42:45.974Z,8.47
2022-09-21T01:44:50.092Z,8.46
2022-09-21T01:46:54.766Z,8.43
2022-09-21T01:49:03.559Z,8.44
2022-09-21T01:51:11.272Z,8.38
2022-09-21T01:53:19.549Z,8.36
2022-09-21T01:55:28.429Z,8.36
2022-09-21T01:57:38.450Z,8.38
2022-09-21T01:59:50.185Z,8.40
2022-09-21T02:01:57.245Z,8.38
2022-09-21T02:04:04.215Z,8.43
2022-09-21T02:06:07.954Z,8.43
2022-09-21T02:08:11.604Z,8.41
2022-09-21T02:10:20.986Z,8.42
2022-09-21T02:12:23.625Z,8.42
2022-09-21T02:14:27.483Z,8.33
2022-09-21T02:16:39.565Z,8.31
2022-09-21T02:18:57.383Z,8.33
2022-09-21T02:21:03.791Z,8.29
2022-09-21T02:23:12.642Z,8.21
2022-09-21T02:25:19.500Z,8.22
2022-09-21T02:27:31.983Z,8.11
2022-09-21T02:29:47.732Z,8.09
2022-09-21T02:31:56.416Z,8.04
2022-09-21T02:34:07.920Z,8.03
2022-09-21T02:36:16.894Z,7.98
2022-09-21T02:38:26.784Z,7.99
2022-09-21T02:40:33.450Z,7.99
2022-09-21T02:42:42.335Z,7.97
2022-09-21T02:44:52.249Z,7.99
2022-09-21T02:46:57.820Z,8.00
2022-09-21T02:49:05.908Z,7.97
2022-09-21T02:51:12.900Z,7.90
2022-09-21T02:53:20.404Z,7.92
2022-09-21T02:55:24.065Z,7.91
2022-09-21T02:57:27.261Z,7.89
2022-09-21T02:59:29.977Z,7.89
2022-09-21T03:01:33.956Z,7.86
2022-09-21T03:03:36.662Z,7.85
2022-09-21T03:05:40.549Z,7.79
2022-09-21T03:07:43.159Z,7.79
2022-09-21T03:09:45.763Z,7.74
2022-09-21T03:11:48.891Z,7.74
2022-09-21T03:13:51.419Z,7.70
2022-09-21T03:16:00.897Z,7.67
2022-09-21T03:18:04.978Z,7.69
2022-09-21T03:20:08.309Z,7.72
2022-09-21T03:22:12.196Z,7.66
2022-09-21T03:24:34.683Z,7.66
2022-09-21T03:26:37.253Z,7.64
2022-09-21T03:28:39.871Z,7.62
2022-09-21T03:30:42.931Z,7.57
2022-09-21T03:32:45.524Z,7.59
2022-09-21T03:34:48.018Z,7.57
2022-09-21T03:36:50.611Z,7.62
2022-09-21T03:38:54.586Z,7.55
2022-09-21T03:40:58.141Z,7.53
2022-09-21T03:43:00.994Z,7.52
2022-09-21T03:45:03.560Z,7.51
2022-09-21T03:47:06.625Z,7.53
2022-09-21T03:49:09.180Z,7.53
2022-09-21T03:51:11.715Z,7.48
2022-09-21T03:53:15.054Z,7.49
2022-09-21T03:55:19.204Z,7.43
2022-09-21T03:57:21.895Z,7.41
2022-09-21T03:59:24.471Z,7.38
2022-09-21T04:01:27.164Z,7.33
2022-09-21T04:03:29.964Z,7.27
2022-09-21T04:05:32.628Z,7.26
2022-09-21T04:07:35.887Z,7.20
2022-09-21T04:09:38.499Z,7.18
2022-09-21T04:11:42.682Z,7.17
2022-09-21T04:13:45.764Z,7.26
2022-09-21T04:15:48.304Z,7.18
2022-09-21T04:17:53.190Z,7.16
2022-09-21T04:19:55.739Z,7.20
2022-09-21T04:21:58.565Z,7.16
2022-09-21T04:24:01.950Z,7.12
2022-09-21T04:26:04.621Z,7.07
2022-09-21T04:28:08.675Z,7.06
2022-09-21T04:30:13.265Z,7.03
2022-09-21T04:32:15.845Z,7.05
2022-09-21T04:34:18.343Z,6.99
2022-09-21T04:36:22.499Z,6.96
2022-09-21T04:38:25.012Z,6.97
2022-09-21T04:40:28.189Z,6.93
2022-09-21T04:42:31.259Z,6.94
2022-09-21T04:44:35.119Z,7.03
2022-09-21T04:46:38.415Z,7.04
2022-09-21T04:48:41.492Z,6.98
2022-09-21T04:50:44.021Z,6.94
2022-09-21T04:52:46.576Z,6.89
2022-09-21T04:54:49.089Z,6.87
2022-09-21T04:56:51.649Z,6.86
2022-09-21T04:58:54.157Z,6.86
2022-09-21T05:00:58.047Z,6.88
2022-09-21T05:03:00.596Z,6.88
2022-09-21T05:05:03.172Z,6.85
2022-09-21T05:07:06.397Z,6.84
2022-09-21T05:09:27.248Z,6.87
2022-09-21T05:11:29.872Z,6.82
2022-09-21T05:13:32.429Z,6.80
2022-09-21T05:15:35.020Z,6.83
2022-09-21T05:17:38.975Z,6.84
2022-09-21T05:19:41.840Z,6.89
2022-09-21T05:21:44.470Z,6.86
2022-09-21T05:23:47.018Z,6.84
2022-09-21T05:25:49.663Z,6.82
2022-09-21T05:27:52.220Z,6.80
2022-09-21T05:29:55.399Z,6.79
2022-09-21T05:32:04.212Z,6.75
2022-09-21T05:34:39.158Z,6.78
2022-09-21T05:36:50.267Z,6.79
2022-09-21T05:38:53.399Z,6.76
2022-09-21T05:40:56.705Z,6.75
2022-09-21T05:42:59.845Z,6.82
2022-09-21T05:45:03.035Z,6.83
2022-09-21T05:47:12.996Z,6.85
2022-09-21T05:49:21.478Z,6.89
2022-09-21T05:51:33.873Z,6.89
2022-09-21T05:53:47.067Z,6.86
2022-09-21T05:55:56.718Z,6.88
2022-09-21T05:58:05.848Z,6.91
2022-09-21T06:00:16.821Z,6.94
2022-09-21T06:02:35.090Z,6.98
2022-09-21T06:04:39.705Z,7.03
2022-09-21T06:06:42.289Z,7.04
2022-09-21T06:08:44.840Z,7.05
2022-09-21T06:10:47.524Z,7.08
2022-09-21T06:12:52.481Z,7.14
2022-09-21T06:14:56.336Z,7.15
2022-09-21T06:16:58.932Z,7.20
2022-09-21T06:19:01.645Z,7.23
2022-09-21T06:21:05.927Z,7.26
2022-09-21T06:23:10.495Z,7.30
2022-09-21T06:25:13.066Z,7.34
2022-09-21T06:27:15.759Z,7.33
2022-09-21T06:29:23.330Z,7.34
2022-09-21T06:31:27.835Z,7.39
2022-09-21T06:33:30.412Z,7.37
2022-09-21T06:35:34.493Z,7.43
2022-09-21T06:37:40.110Z,7.43
2022-09-21T06:39:42.643Z,7.49
2022-09-21T06:41:45.225Z,7.51
2022-09-21T06:43:47.737Z,7.51
2022-09-21T06:45:57.345Z,7.50
2022-09-21T06:48:00.374Z,7.52
2022-09-21T06:50:03.321Z,7.53
2022-09-21T06:52:05.980Z,7.56
2022-09-21T06:54:10.424Z,7.57
2022-09-21T06:56:12.930Z,7.60
2022-09-21T06:58:15.518Z,7.64
2022-09-21T07:00:18.191Z,7.65
2022-09-21T07:02:21.146Z,7.69
2022-09-21T07:04:25.500Z,7.65
2022-09-21T07:06:29.361Z,7.65
2022-09-21T07:10:58.979Z,7.73
2022-09-21T07:13:03.391Z,7.78
2022-09-21T07:15:07.793Z,7.81
2022-09-21T07:17:15.717Z,7.88
2022-09-21T07:19:19.135Z,7.92
2022-09-21T07:21:21.823Z,7.96
2022-09-21T07:23:24.356Z,8.00
2022-09-21T07:25:26.924Z,8.05
2022-09-21T07:27:32.029Z,8.10
2022-09-21T07:29:34.601Z,8.15
2022-09-21T07:31:37.196Z,8.16
2022-09-21T07:33:40.197Z,8.13
2022-09-21T07:35:51.633Z,8.17
2022-09-21T07:37:56.427Z,8.20
2022-09-21T07:39:59.048Z,8.22
2022-09-21T07:42:01.640Z,8.30
2022-09-21T07:44:05.967Z,8.29
2022-09-21T07:46:09.876Z,8.37
2022-09-21T07:48:12.638Z,8.40
2022-09-21T07:50:15.586Z,8.43
2022-09-21T07:52:19.316Z,8.47
2022-09-21T07:54:21.880Z,8.52
2022-09-21T07:56:25.110Z,8.52
2022-09-21T07:58:45.385Z,8.53
2022-09-21T08:00:49.346Z,8.57
2022-09-21T08:02:51.938Z,8.63
2022-09-21T08:04:54.807Z,8.67
2022-09-21T08:06:57.414Z,8.70
2022-09-21T08:09:00.076Z,8.75
2022-09-21T08:11:04.329Z,8.76
2022-09-21T08:13:06.916Z,8.73
2022-09-21T08:15:30.690Z,8.76
2022-09-21T08:17:36.142Z,8.75
2022-09-21T08:19:38.688Z,8.76
2022-09-21T08:21:41.405Z,8.79
2022-09-21T08:23:43.991Z,8.81
2022-09-21T08:25:46.542Z,8.84
2022-09-21T08:27:49.167Z,8.87
2022-09-21T08:29:51.786Z,8.90
2022-09-21T08:31:54.372Z,8.97
2022-09-21T08:33:58.684Z,8.95
2022-09-21T08:36:02.513Z,8.99
2022-09-21T08:38:05.112Z,9.04
2022-09-21T08:40:08.751Z,9.10
2022-09-21T08:42:30.097Z,9.14
2022-09-21T08:44:39.930Z,9.16
2022-09-21T08:46:44.326Z,9.17
2022-09-21T08:48:51.319Z,9.20
2022-09-21T08:50:57.569Z,9.22
2022-09-21T08:53:05.114Z,9.25
2022-09-21T08:55:17.770Z,9.27
2022-09-21T08:57:24.461Z,9.32
2022-09-21T08:59:27.043Z,9.36
2022-09-21T09:01:51.907Z,9.40
2022-09-21T09:04:10.438Z,9.46
2022-09-21T09:06:26.598Z,9.50
2022-09-21T09:08:44.464Z,9.55
2022-09-21T09:11:00.303Z,9.59
2022-09-21T09:13:17.838Z,9.63
2022-09-21T09:15:48.657Z,9.70
2022-09-21T09:17:59.982Z,9.75
2022-09-21T09:20:06.687Z,9.81
2022-09-21T09:22:15.989Z,9.86
2022-09-21T09:24:26.206Z,9.91
2022-09-21T09:26:34.853Z,9.98
2022-09-21T09:28:42.396Z,10.03
2022-09-21T09:30:45.492Z,10.08
2022-09-21T09:32:55.270Z,10.13
2022-09-21T09:35:03.452Z,10.17
2022-09-21T09:37:13.447Z,10.21
2022-09-21T09:39:17.560Z,10.26
2022-09-21T09:41:47.193Z,10.29
2022-09-21T09:43:59.237Z,10.36
2022-09-21T09:46:11.310Z,10.38
2022-09-21T09:48:31.155Z,10.42
2022-09-21T09:50:36.591Z,10.48
2022-09-21T09:52:41.209Z,10.56
2022-09-21T09:54:44.528Z,10.57
2022-09-21T09:56:47.099Z,10.68
2022-09-21T09:58:56.283Z,10.72
2022-09-21T10:00:59.188Z,10.73
2022-09-21T10:03:01.709Z,10.74
2022-09-21T10:05:06.759Z,10.76
2022-09-21T10:07:19.314Z,10.96
2022-09-21T10:09:27.587Z,10.88
2022-09-21T10:11:38.310Z,10.90
2022-09-21T10:13:42.733Z,10.91
2022-09-21T10:15:50.432Z,10.94
2022-09-21T10:18:02.820Z,10.99
2022-09-21T10:20:08.249Z,11.03
2022-09-21T10:22:17.885Z,11.09
2022-09-21T10:24:23.869Z,11.13
2022-09-21T10:26:32.841Z,11.18
2022-09-21T10:28:36.222Z,11.22
2022-09-21T10:30:39.114Z,11.27
2022-09-21T10:32:56.752Z,11.37
2022-09-21T10:35:19.035Z,11.44
2022-09-21T10:37:28.709Z,11.53
2022-09-21T10:39:32.522Z,11.64
2022-09-21T10:41:38.263Z,11.81
2022-09-21T10:43:44.502Z,11.81
2022-09-21T10:45:55.079Z,11.79
2022-09-21T10:48:00.569Z,11.78
2022-09-21T10:50:07.477Z,11.79
2022-09-21T10:52:10.111Z,11.88
2022-09-21T10:54:17.414Z,11.93
2022-09-21T10:56:20.322Z,12.01
2022-09-21T10:58:24.407Z,12.01
2022-09-21T11:00:35.982Z,12.02
2022-09-21T11:02:39.388Z,12.03
2022-09-21T11:04:47.572Z,12.09
2022-09-21T11:06:55.895Z,12.09
2022-09-21T11:09:03.794Z,12.19
2022-09-21T11:11:24.417Z,12.19
2022-09-21T11:13:32.630Z,12.21
2022-09-21T11:15:45.734Z,12.32
2022-09-21T11:17:59.389Z,12.32
2022-09-21T11:20:14.611Z,12.32
2022-09-21T11:22:23.931Z,12.34
2022-09-21T11:24:37.909Z,12.47
2022-09-21T11:26:46.627Z,12.47
2022-09-21T11:28:55.312Z,12.50
2022-09-21T11:31:20.354Z,12.67
2022-09-21T11:33:39.039Z,12.75
2022-09-21T11:35:51.189Z,12.83
2022-09-21T11:38:05.432Z,12.87
2022-09-21T11:40:37.328Z,12.91
2022-09-21T11:43:01.656Z,12.89
2022-09-21T11:45:21.904Z,12.98
2022-09-21T11:47:49.954Z,13.05
2022-09-21T11:50:29.136Z,13.05
2022-09-21T11:52:43.458Z,13.07
2022-09-21T11:55:06.082Z,13.09
2022-09-21T11:57:18.939Z,13.19
2022-09-21T11:59:36.284Z,13.20
2022-09-21T12:01:49.335Z,13.29
2022-09-21T12:04:16.458Z,13.30
2022-09-21T12:06:29.948Z,13.37
2022-09-21T12:08:50.038Z,13.40
2022-09-21T12:11:03.187Z,13.44
2022-09-21T12:13:15.054Z,13.49
2022-09-21T12:15:22.512Z,13.54
2022-09-21T12:17:37.027Z,13.60
2022-09-21T12:19:46.946Z,13.70
2022-09-21T12:21:52.425Z,13.96
2022-09-21T12:23:57.505Z,14.03
2022-09-21T12:26:03.168Z,14.06
2022-09-21T12:28:13.384Z,14.25
2022-09-21T12:30:20.359Z,14.60
2022-09-21T12:32:31.334Z,14.90
2022-09-21T12:34:43.290Z,15.26
2022-09-21T12:36:52.289Z,15.67
2022-09-21T12:39:02.096Z,16.08
2022-09-21T12:41:11.802Z,16.33
2022-09-21T12:43:29.899Z,16.45
2022-09-21T12:45:36.785Z,16.42
2022-09-21T12:47:49.890Z,16.27
2022-09-21T12:49:57.908Z,16.09
2022-09-21T12:52:06.772Z,15.90
2022-09-21T12:54:20.823Z,15.75
2022-09-21T12:56:33.456Z,15.62
2022-09-21T12:59:00.646Z,15.51
2022-09-21T13:01:16.650Z,15.45
2022-09-21T13:03:31.707Z,15.60
2022-09-21T13:05:43.583Z,15.60
2022-09-21T13:07:56.950Z,15.85
2022-09-21T13:10:01.055Z,16.32
2022-09-21T13:12:10.165Z,17.14
2022-09-21T13:14:14.433Z,17.92
2022-09-21T13:16:27.497Z,18.57
2022-09-21T13:18:36.386Z,19.30
2022-09-21T13:20:41.165Z,20.05
2022-09-21T13:22:44.365Z,20.20
2022-09-21T13:24:59.426Z,20.58
2022-09-21T13:27:05.125Z,20.84
2022-09-21T13:29:27.293Z,21.17
2022-09-21T13:31:41.135Z,21.33
2022-09-21T13:34:08.758Z,21.34
2022-09-21T13:36:32.227Z,21.08
2022-09-21T13:38:55.473Z,20.60
2022-09-21T13:41:00.226Z,20.55
2022-09-21T13:43:26.248Z,20.64
2022-09-21T13:46:05.834Z,20.58
2022-09-21T13:48:19.724Z,20.55
2022-09-21T13:50:29.581Z,20.21
2022-09-21T13:52:40.399Z,20.08
2022-09-21T13:54:50.534Z,20.01
2022-09-21T13:57:09.566Z,19.94
2022-09-21T13:59:22.770Z,19.91
2022-09-21T14:01:48.131Z,19.85
2022-09-21T14:03:55.420Z,19.87
2022-09-21T14:06:06.722Z,19.86
2022-09-21T14:08:21.955Z,20.00
2022-09-21T14:10:25.997Z,20.04
2022-09-21T14:12:35.291Z,20.05
2022-09-21T14:14:39.921Z,20.19
2022-09-21T14:17:04.195Z,20.18
2022-09-21T14:19:45.460Z,20.20
2022-09-21T14:22:21.114Z,20.25
2022-09-21T14:24:36.706Z,20.28
2022-09-21T14:26:52.818Z,20.29
2022-09-21T14:28:55.451Z,20.27
2022-09-21T14:31:03.032Z,20.33
2022-09-21T14:33:21.912Z,20.31
2022-09-21T14:35:31.484Z,20.32
2022-09-21T14:37:40.291Z,20.56
2022-09-21T14:39:45.934Z,20.39
2022-09-21T14:41:51.376Z,20.34
2022-09-21T14:43:56.835Z,20.25
2022-09-21T14:46:18.951Z,20.24
2022-09-21T14:48:31.617Z,20.22
2022-09-21T14:50:37.236Z,20.21
2022-09-21T14:52:57.097Z,20.25
2022-09-21T14:55:15.721Z,20.23
2022-09-21T14:57:44.324Z,20.21
2022-09-21T14:59:59.718Z,19.94
2022-09-21T15:02:14.427Z,19.66
2022-09-21T15:04:30.589Z,19.41
2022-09-21T15:06:56.596Z,19.25
2022-09-21T15:09:35.894Z,19.21
2022-09-21T15:11:46.995Z,19.17
2022-09-21T15:14:14.622Z,19.13
2022-09-21T15:16:39.389Z,19.10
2022-09-21T15:18:44.064Z,19.09
2022-09-21T15:21:01.630Z,19.09
2022-09-21T15:23:19.042Z,19.08
2022-09-21T15:25:21.701Z,19.08
2022-09-21T15:27:33.338Z,19.05
2022-09-21T15:29:37.457Z,19.08
2022-09-21T15:31:42.822Z,19.07
2022-09-21T15:33:48.304Z,19.03
2022-09-21T15:35:54.451Z,19.00
2022-09-21T15:37:59.974Z,18.99
2022-09-21T15:40:08.937Z,18.94
2022-09-21T15:42:22.954Z,18.96
2022-09-21T15:44:34.872Z,18.92
2022-09-21T15:46:37.566Z,18.89
2022-09-21T15:48:42.410Z,18.99
2022-09-21T15:50:48.459Z,18.88
2022-09-21T15:52:54.405Z,18.80
2022-09-21T15:55:00.668Z,18.70
2022-09-21T15:57:08.540Z,18.59
2022-09-21T15:59:18.144Z,18.46
2022-09-21T16:01:23.805Z,18.38
2022-09-21T16:03:27.061Z,18.29
2022-09-21T16:05:30.547Z,18.09
2022-09-21T16:07:35.525Z,17.88
2022-09-21T16:09:42.509Z,17.69
2022-09-21T16:11:45.103Z,17.54
2022-09-21T16:14:06.190Z,17.65
2022-09-21T16:16:10.343Z,17.33
2022-09-21T16:18:32.190Z,17.17
2022-09-21T16:20:43.850Z,17.03
2022-09-21T16:22:48.462Z,16.90
2022-09-21T16:24:54.619Z,16.77
2022-09-21T16:26:59.384Z,16.68
2022-09-21T16:29:23.433Z,16.57
2022-09-21T16:31:30.970Z,16.50
2022-09-21T16:33:57.699Z,16.43
2022-09-21T16:36:01.755Z,16.36
2022-09-21T16:38:05.982Z,16.29
2022-09-21T16:40:10.685Z,16.29
2022-09-21T16:42:14.043Z,16.20
2022-09-21T16:44:20.985Z,16.17
2022-09-21T16:46:23.646Z,16.18
2022-09-21T16:48:26.176Z,16.08
2022-09-21T16:50:30.087Z,16.02
2022-09-21T16:52:32.574Z,15.96
2022-09-21T16:54:37.480Z,15.88
2022-09-21T16:56:40.179Z,15.87
2022-09-21T16:58:45.340Z,15.78
2022-09-21T17:00:53.637Z,15.76
2022-09-21T17:02:58.292Z,15.63
2022-09-21T17:05:01.956Z,15.53
2022-09-21T17:07:06.006Z,15.45
2022-09-21T17:09:21.072Z,15.36
2022-09-21T17:11:24.368Z,15.48
2022-09-21T17:13:28.067Z,15.31
2022-09-21T17:15:32.263Z,15.20
2022-09-21T17:17:34.880Z,15.15
2022-09-21T17:19:37.490Z,15.08
2022-09-21T17:21:40.242Z,14.99
2022-09-21T17:23:44.880Z,14.93
2022-09-21T17:25:47.409Z,14.86
2022-09-21T17:27:49.921Z,14.87
2022-09-21T17:29:53.907Z,14.93
2022-09-21T17:31:58.656Z,14.76
2022-09-21T17:34:10.410Z,14.66
2022-09-21T17:36:14.996Z,14.56
2022-09-21T17:38:18.017Z,14.53
2022-09-21T17:40:23.282Z,14.46
2022-09-21T17:42:26.220Z,14.40
2022-09-21T17:44:48.853Z,14.30
2022-09-21T17:46:59.700Z,14.20
2022-09-21T17:49:03.063Z,14.11
2022-09-21T17:51:06.426Z,14.03
2022-09-21T17:53:28.407Z,13.98
2022-09-21T17:55:32.450Z,13.90
2022-09-21T17:57:52.101Z,13.86
2022-09-21T18:00:01.084Z,13.83
2022-09-21T18:02:12.788Z,13.79
2022-09-21T18:04:16.017Z,13.76
2022-09-21T18:06:19.014Z,13.73
2022-09-21T18:08:21.919Z,13.73
2022-09-21T18:10:26.194Z,13.66
2022-09-21T18:12:53.900Z,13.59
2022-09-21T18:15:03.742Z,13.55
2022-09-21T18:17:20.700Z,13.52
2022-09-21T18:19:35.190Z,13.49
2022-09-21T18:21:41.728Z,13.42
2022-09-21T18:23:54.288Z,13.39
2022-09-21T18:25:57.443Z,13.34
2022-09-21T18:28:12.106Z,13.28
2022-09-21T18:30:16.291Z,13.21
2022-09-21T18:32:30.638Z,13.16
2022-09-21T18:34:51.994Z,13.10
2022-09-21T18:37:03.308Z,13.08
2022-09-21T18:39:21.285Z,13.03
2022-09-21T18:41:32.906Z,13.01
2022-09-21T18:43:51.647Z,12.90
2022-09-21T18:46:01.718Z,12.86
2022-09-21T18:48:22.630Z,12.80
2022-09-21T18:50:31.951Z,12.76
2022-09-21T18:52:46.502Z,12.71
2022-09-21T18:54:49.224Z,12.69
2022-09-21T18:56:51.888Z,12.64
2022-09-21T18:58:57.055Z,12.60
2022-09-21T19:01:00.280Z,12.56
2022-09-21T19:03:17.136Z,12.49
2022-09-21T19:05:21.425Z,12.47
2022-09-21T19:07:34.368Z,12.42
2022-09-21T19:09:52.243Z,12.37
2022-09-21T19:12:03.621Z,12.33
2022-09-21T19:14:15.969Z,12.28
2022-09-21T19:16:27.920Z,12.23
2022-09-21T19:18:37.336Z,12.19
2022-09-21T19:20:50.759Z,12.16
2022-09-21T19:23:00.818Z,12.12
2022-09-21T19:25:08.719Z,12.09
2022-09-21T19:27:19.300Z,12.05
2022-09-21T19:29:39.226Z,11.99
2022-09-21T19:31:42.086Z,11.98
2022-09-21T19:33:50.447Z,11.96
2022-09-21T19:35:54.428Z,11.93
2022-09-21T19:37:58.362Z,11.89
2022-09-21T19:40:01.186Z,11.84
2022-09-21T19:42:14.483Z,11.81
2022-09-21T19:44:34.549Z,11.74
2022-09-21T19:46:47.836Z,11.69
2022-09-21T19:48:52.589Z,11.65
2022-09-21T19:50:58.715Z,11.58
2022-09-21T19:53:15.725Z,11.54
2022-09-21T19:55:38.284Z,11.54
2022-09-21T19:57:59.112Z,11.48
2022-09-21T20:00:02.627Z,11.44
2022-09-21T20:02:07.302Z,11.44
2022-09-21T20:04:14.997Z,11.36
2022-09-21T20:06:21.453Z,11.31
2022-09-21T20:08:31.511Z,11.31
2022-09-21T20:10:45.374Z,11.19
2022-09-21T20:12:57.912Z,11.13
2022-09-21T20:15:07.905Z,11.10
2022-09-21T20:17:17.335Z,11.04
2022-09-21T20:19:42.626Z,10.98
2022-09-21T20:21:47.169Z,10.91
2022-09-21T20:23:55.749Z,10.87
2022-09-21T20:26:04.779Z,10.81
2022-09-21T20:28:08.382Z,10.77
2022-09-21T20:30:13.449Z,10.74
2022-09-21T20:32:17.990Z,10.71
2022-09-21T20:34:20.910Z,10.65
2022-09-21T20:36:23.757Z,10.64
2022-09-21T20:38:26.341Z,10.57
2022-09-21T20:40:30.048Z,10.54
2022-09-21T20:42:33.537Z,10.55
2022-09-21T20:44:36.076Z,10.45
2022-09-21T20:46:38.606Z,10.39
2022-09-21T20:48:43.459Z,10.40
2022-09-21T20:50:48.707Z,10.39
2022-09-21T20:52:52.168Z,10.38
2022-09-21T20:54:54.738Z,10.40
2022-09-21T20:56:57.879Z,10.37
2022-09-21T20:59:00.429Z,10.34
2022-09-21T21:01:07.888Z,10.30
2022-09-21T21:03:12.521Z,10.27
2022-09-21T21:05:18.480Z,10.20
2022-09-21T21:07:21.062Z,10.15
2022-09-21T21:09:24.164Z,10.16
2022-09-21T21:11:28.163Z,10.10
2022-09-21T21:13:31.183Z,10.04
2022-09-21T21:15:33.771Z,9.99
2022-09-21T21:17:36.740Z,9.93
2022-09-21T21:19:39.300Z,9.88
2022-09-21T21:21:45.341Z,9.82
2022-09-21T21:24:07.571Z,9.81
2022-09-21T21:26:10.125Z,9.84
2022-09-21T21:28:12.924Z,9.83
2022-09-21T21:30:15.588Z,9.85
2022-09-21T21:32:19.234Z,9.91
2022-09-21T21:34:23.085Z,9.74
2022-09-21T21:36:25.673Z,9.73
2022-09-21T21:38:29.552Z,9.60
2022-09-21T21:40:32.112Z,9.60
2022-09-21T21:42:34.728Z,9.50
2022-09-21T21:44:37.452Z,9.50
2022-09-21T21:46:39.971Z,9.46
2022-09-21T21:48:42.597Z,9.49
2022-09-21T21:50:45.420Z,9.49
2022-09-21T21:52:48.013Z,9.49
2022-09-21T21:54:51.944Z,9.48
2022-09-21T21:56:54.860Z,9.54
2022-09-21T21:58:57.433Z,9.39
2022-09-21T22:01:11.562Z,9.31
2022-09-21T22:03:14.580Z,9.24
2022-09-21T22:05:17.152Z,9.22
2022-09-21T22:07:19.678Z,9.20
2022-09-21T22:09:22.316Z,9.16
2022-09-21T22:11:27.936Z,9.09
2022-09-21T22:13:34.879Z,9.12
2022-09-21T22:15:37.664Z,9.14
2022-09-21T22:17:40.342Z,9.16
2022-09-21T22:19:42.973Z,9.13
2022-09-21T22:21:51.705Z,9.14
2022-09-21T22:23:57.159Z,9.17
2022-09-21T22:26:05.641Z,9.15
2022-09-21T22:28:09.533Z,9.11
2022-09-21T22:30:12.871Z,9.13
2022-09-21T22:32:15.406Z,9.09
2022-09-21T22:34:18.806Z,9.07
2022-09-21T22:36:22.961Z,9.08
2022-09-21T22:38:29.687Z,9.03
2022-09-21T22:40:32.305Z,8.99
2022-09-21T22:42:34.892Z,8.92
2022-09-21T22:44:38.754Z,8.90
2022-09-21T22:46:41.580Z,8.92
2022-09-21T22:48:44.549Z,8.87
2022-09-21T22:50:47.083Z,8.89
2022-09-21T22:52:49.674Z,8.89
2022-09-21T22:54:52.256Z,8.83
2022-09-21T22:56:54.805Z,8.84
2022-09-21T22:58:59.300Z,8.85
2022-09-21T23:01:11.763Z,8.86
2022-09-21T23:03:14.422Z,8.86
2022-09-21T23:05:17.271Z,8.84
2022-09-21T23:07:19.824Z,8.77
2022-09-21T23:09:22.480Z,8.77
2022-09-21T23:11:27.513Z,8.73
2022-09-21T23:13:30.045Z,8.70
2022-09-21T23:15:32.534Z,8.69
2022-09-21T23:17:37.100Z,8.62
2022-09-21T23:19:39.680Z,8.60
2022-09-21T23:21:43.950Z,8.56
2022-09-21T23:23:47.373Z,8.53
2022-09-21T23:25:49.892Z,8.55
2022-09-21T23:27:53.738Z,8.54
2022-09-21T23:29:59.322Z,8.51
2022-09-21T23:32:02.109Z,8.50
2022-09-21T23:34:08.494Z,8.52
2022-09-21T23:36:12.945Z,8.53
2022-09-21T23:38:15.491Z,8.51
2022-09-21T23:40:18.180Z,8.52
2022-09-21T23:42:20.738Z,8.47
2022-09-21T23:44:23.321Z,8.46
2022-09-21T23:46:27.774Z,8.40
2022-09-21T23:48:30.744Z,8.39
2022-09-21T23:50:34.961Z,8.39
2022-09-21T23:52:37.535Z,8.40
2022-09-21T23:54:40.060Z,8.37
2022-09-21T23:56:43.231Z,8.32
2022-09-21T23:58:45.785Z,8.31
